Time;durP1;ratioP1;P1;durP2;ratioP2;P2;SDS_P1;SDS_P2;PMS_P1;PMS_P2;Temp;Humidity;BMP_temperature;BMP_pressure;BME280_temperature;BME280_humidity;BME280_pressure;Samples;Min_cycle;Max_cycle;Signal;HPM_P1;HPM_P2
2022/12/07 00:01:40;;;;;;;;;;;;;;;2.93;100.00;101767.03;5072818;28;20078;-82
2022/12/07 00:04:09;;;;;;;4.80;3.03;;;;;;;2.90;100.00;101763.50;5072050;28;19959;-83
2022/12/07 00:06:40;;;;;;;4.03;2.70;;;;;;;2.86;100.00;101769.38;5071362;28;20032;-82
2022/12/07 00:09:07;;;;;;;3.80;2.80;;;;;;;2.83;100.00;101764.16;5074396;28;20027;-82
2022/12/07 00:11:32;;;;;;;3.70;2.70;;;;;;;2.81;100.00;101763.22;5084206;22;20045;-82
2022/12/07 00:14:01;;;;;;;3.13;2.47;;;;;;;2.78;100.00;101770.00;5075666;28;20492;-82
2022/12/07 00:16:31;;;;;;;2.80;2.50;;;;;;;2.75;100.00;101762.22;5075708;28;20020;-82
2022/12/07 00:18:58;;;;;;;3.42;2.50;;;;;;;2.72;100.00;101762.13;5076426;28;20033;-82
2022/12/07 00:21:29;;;;;;;2.60;2.30;;;;;;;2.70;100.00;101752.66;5075249;28;20511;-82
2022/12/07 00:23:56;;;;;;;3.85;2.55;;;;;;;2.66;100.00;101756.78;5056149;28;20062;-83
2022/12/07 00:26:26;;;;;;;3.08;2.60;;;;;;;2.63;100.00;101749.88;5055873;28;20025;-83
2022/12/07 00:28:54;;;;;;;3.40;2.70;;;;;;;2.61;100.00;101751.50;5055230;28;20468;-82
2022/12/07 00:31:23;;;;;;;4.15;3.00;;;;;;;2.59;100.00;101740.34;5055912;28;20116;-82
2022/12/07 00:33:48;;;;;;;4.20;3.08;;;;;;;2.59;100.00;101740.34;5056035;28;20017;-82
2022/12/07 00:36:16;;;;;;;4.97;3.28;;;;;;;2.57;100.00;101738.56;5055035;28;20033;-82
2022/12/07 00:38:42;;;;;;;5.15;3.17;;;;;;;2.53;100.00;101729.91;5055683;28;20052;-83
2022/12/07 00:41:16;;;;;;;4.35;3.03;;;;;;;2.50;100.00;101734.91;5055345;28;20049;-83
2022/12/07 00:43:43;;;;;;;4.72;2.85;;;;;;;2.49;100.00;101738.31;5055664;28;20037;-82
2022/12/07 00:46:09;;;;;;;4.82;3.10;;;;;;;2.45;100.00;101745.03;5065741;28;20425;-82
2022/12/07 00:48:35;;;;;;;3.30;2.70;;;;;;;2.46;100.00;101745.91;5074926;28;20032;-82
2022/12/07 00:51:00;;;;;;;4.25;2.90;;;;;;;2.44;100.00;101745.00;5075624;28;20085;-83
2022/12/07 00:53:27;;;;;;;4.00;3.00;;;;;;;2.43;100.00;101744.09;5075145;28;20036;-82
2022/12/07 00:55:52;;;;;;;3.80;2.80;;;;;;;2.43;100.00;101741.53;5074809;28;20048;-83
2022/12/07 00:58:18;;;;;;;4.43;2.90;;;;;;;2.42;100.00;101742.34;5075464;28;20021;-82
2022/12/07 01:00:44;;;;;;;3.35;2.63;;;;;;;2.39;100.00;101742.28;5075446;28;20078;-82
2022/12/07 01:03:11;;;;;;;5.20;2.83;;;;;;;2.38;100.00;101737.09;5074242;28;20028;-82
2022/12/07 01:05:36;;;;;;;3.75;2.90;;;;;;;2.36;100.00;101743.88;5075395;28;20059;-82
2022/12/07 01:08:02;;;;;;;3.45;2.60;;;;;;;2.33;100.00;101736.06;5075573;28;20058;-83
2022/12/07 01:10:30;;;;;;;3.42;2.70;;;;;;;2.27;100.00;101732.47;5074398;28;20044;-83
2022/12/07 01:12:55;;;;;;;3.97;2.90;;;;;;;2.25;100.00;101734.13;5075528;28;20024;-82
2022/12/07 01:15:20;;;;;;;3.65;2.88;;;;;;;2.24;100.00;101732.41;5075022;28;20385;-83
2022/12/07 01:17:49;;;;;;;4.28;2.78;;;;;;;2.22;100.00;101738.25;5074349;28;20073;-82
2022/12/07 01:20:15;;;;;;;3.75;2.70;;;;;;;2.19;100.00;101739.03;5073649;28;20363;-82
2022/12/07 01:22:41;;;;;;;3.83;2.78;;;;;;;2.16;100.00;101734.69;5075026;28;20055;-82
2022/12/07 01:25:08;;;;;;;3.50;2.70;;;;;;;2.16;100.00;101733.81;5073445;28;20024;-82
2022/12/07 01:27:35;;;;;;;3.92;2.78;;;;;;;2.14;100.00;101735.44;5075191;28;20024;-82
2022/12/07 01:30:01;;;;;;;3.50;2.58;;;;;;;2.13;100.00;101734.59;5075168;28;20024;-83
2022/12/07 01:32:27;;;;;;;4.82;2.92;;;;;;;2.15;100.00;101750.00;5074000;28;20027;-83
2022/12/07 01:34:52;;;;;;;4.55;2.88;;;;;;;2.16;100.00;101744.06;5074773;28;20032;-82
2022/12/07 01:37:18;;;;;;;3.85;2.60;;;;;;;2.19;100.00;101738.19;5074594;28;20488;-83
2022/12/07 01:39:43;;;;;;;3.45;2.50;;;;;;;2.22;100.00;101738.25;5073839;28;20029;-82
2022/12/07 01:42:10;;;;;;;2.95;2.50;;;;;;;2.24;100.00;101740.09;5074156;28;20020;-82
2022/12/07 01:45:13;;;;;;;3.60;2.60;;;;;;;2.27;100.00;101735.03;5073845;28;20037;-82
2022/12/07 01:47:39;;;;;;;3.00;2.50;;;;;;;2.30;100.00;101729.16;5054683;28;20040;-82
2022/12/07 01:50:04;;;;;;;3.13;2.45;;;;;;;2.34;100.00;101745.50;5054472;28;20021;-82
2022/12/07 01:52:33;;;;;;;3.33;2.38;;;;;;;2.37;100.00;101741.34;5053715;28;20501;-82
2022/12/07 01:55:05;;;;;;;2.47;2.10;;;;;;;2.40;100.00;101735.44;5054443;28;20351;-82
2022/12/07 01:57:34;;;;;;;3.28;2.50;;;;;;;2.41;100.00;101738.06;5054729;28;20048;-82
2022/12/07 02:00:00;;;;;;;3.05;2.50;;;;;;;2.43;100.00;101735.56;5065572;28;20052;-82
2022/12/07 02:02:32;;;;;;;2.97;2.40;;;;;;;2.44;100.00;101730.47;5074222;28;20028;-83
2022/12/07 02:05:00;;;;;;;2.47;2.25;;;;;;;2.47;100.00;101729.72;5074347;28;20459;-83
2022/12/07 02:07:27;;;;;;;3.10;2.30;;;;;;;2.47;100.00;101733.13;5073352;28;20021;-82
2022/12/07 02:09:53;;;;;;;2.40;2.20;;;;;;;2.48;100.00;101726.31;5073651;28;20052;-83
2022/12/07 02:12:20;;;;;;;2.63;2.10;;;;;;;2.45;100.00;101721.97;5073809;28;20070;-83
2022/12/07 02:14:45;;;;;;;2.92;2.30;;;;;;;2.44;100.00;101729.63;5073216;28;20071;-83
2022/12/07 02:17:50;;;;;;;2.30;2.10;;;;;;;2.40;100.00;101726.09;5073625;28;20523;-82
2022/12/07 02:20:33;;;;;;;2.05;1.85;;;;;;;2.39;100.00;101724.34;5073046;28;20020;-82
2022/12/07 02:23:07;;;;;;;2.30;2.08;;;;;;;2.37;100.00;101720.84;5073968;28;20128;-82
2022/12/07 02:25:57;;;;;;;2.35;1.90;;;;;;;2.36;100.00;101725.94;5073812;28;20029;-82
2022/12/07 02:28:33;;;;;;;2.13;1.92;;;;;;;2.32;100.00;101730.06;5072643;28;20021;-82
2022/12/07 02:31:07;;;;;;;2.20;2.00;;;;;;;2.29;100.00;101723.16;5073821;28;20036;-82
2022/12/07 02:33:44;;;;;;;2.42;1.80;;;;;;;2.29;100.00;101730.00;5073507;28;20391;-82
2022/12/07 02:36:21;;;;;;;2.30;2.10;;;;;;;2.25;100.00;101723.88;5073535;28;20023;-82
2022/12/07 02:38:55;;;;;;;2.60;2.30;;;;;;;2.22;100.00;101725.47;5073674;28;20028;-82
2022/12/07 02:41:27;;;;;;;3.10;2.40;;;;;;;2.20;100.00;101722.84;5072634;28;20039;-82
2022/12/07 02:44:06;;;;;;;2.80;2.38;;;;;;;2.19;100.00;101718.56;5073663;28;20055;-82
2022/12/07 02:46:40;;;;;;;3.20;2.50;;;;;;;2.19;100.00;101726.25;5073173;28;20035;-82
2022/12/07 02:49:07;;;;;;;2.95;2.40;;;;;;;2.19;100.00;101723.69;5072574;28;20031;-83
2022/12/07 02:51:38;;;;;;;3.10;2.50;;;;;;;2.20;100.00;101720.28;5073382;28;20078;-83
2022/12/07 02:54:12;;;;;;;2.67;2.30;;;;;;;2.20;100.00;101725.41;5073147;28;20465;-82
2022/12/07 02:56:43;;;;;;;2.75;2.28;;;;;;;2.20;100.00;101720.28;5072174;28;20112;-83
2022/12/07 02:59:50;;;;;;;2.35;2.15;;;;;;;2.21;100.00;101721.16;5072810;28;20488;-82
2022/12/07 03:02:45;;;;;;;3.70;2.45;;;;;;;2.19;100.00;101731.34;5072216;28;20028;-82
2022/12/07 03:05:31;;;;;;;2.60;2.20;;;;;;;2.16;100.00;101728.69;5072635;28;20037;-82
2022/12/07 03:08:22;;;;;;;2.67;2.22;;;;;;;2.14;100.00;101720.97;5073390;28;20052;-82
2022/12/07 03:11:02;;;;;;;2.92;2.20;;;;;;;2.13;100.00;101728.59;5071862;28;20048;-83
2022/12/07 03:13:52;;;;;;;2.50;2.22;;;;;;;2.11;100.00;101730.25;5073062;28;20024;-83
2022/12/07 03:16:23;;;;;;;2.80;2.30;;;;;;;2.09;100.00;101725.03;5072179;28;20441;-82
2022/12/07 03:19:08;;;;;;;2.53;2.17;;;;;;;2.10;100.00;101734.47;5073104;28;20385;-82
2022/12/07 03:21:39;;;;;;;2.23;2.03;;;;;;;2.05;100.00;101723.22;5072870;28;20070;-82
2022/12/07 03:24:10;;;;;;;2.40;2.10;;;;;;;2.06;100.00;101724.06;5072100;28;20033;-82
2022/12/07 03:26:41;;;;;;;2.65;2.10;;;;;;;2.06;100.00;101724.97;5073135;28;20033;-82
2022/12/07 03:29:13;;;;;;;2.97;2.10;;;;;;;2.04;100.00;101725.72;5072624;28;20052;-82
2022/12/07 03:31:43;;;;;;;2.30;2.10;;;;;;;2.03;100.00;101724.84;5071824;28;20029;-83
2022/12/07 03:34:16;;;;;;;2.15;1.95;;;;;;;2.03;100.00;101724.00;5072431;28;20116;-82
2022/12/07 03:36:50;;;;;;;2.28;1.98;;;;;;;2.02;100.00;101730.78;5072822;28;20469;-82
2022/12/07 03:39:21;;;;;;;2.20;2.00;;;;;;;2.02;100.00;101719.69;5071917;28;20055;-82
2022/12/07 03:41:47;;;;;;;2.67;2.20;;;;;;;2.01;100.00;101721.34;5072843;28;20154;-82
2022/12/07 03:44:14;;;;;;;2.78;2.30;;;;;;;2.03;100.00;101719.72;5074623;28;20032;-82
2022/12/07 03:46:44;;;;;;;;;;;;;;;2.06;100.00;101716.41;5076788;28;20395;-82
2022/12/07 03:49:39;;;;;;;2.10;1.90;;;;;;;2.07;100.00;101713.00;5137295;22;19921;-82
2022/12/07 03:52:23;;;;;;;2.40;2.10;;;;;;;2.11;100.00;101709.75;5072424;28;20037;-82
2022/12/07 03:55:08;;;;;;;2.35;2.05;;;;;;;2.13;100.00;101716.66;5076408;28;20447;-82
2022/12/07 03:57:35;;;;;;;2.83;1.88;;;;;;;2.15;100.00;101712.47;5076988;28;20085;-80
2022/12/07 04:00:04;;;;;;;2.63;1.83;;;;;;;2.18;100.00;101709.13;5075713;28;20638;-80
2022/12/07 04:02:29;;;;;;;2.50;1.70;;;;;;;2.21;100.00;101705.78;5076608;28;20393;-81
2022/12/07 04:04:56;;;;;;;1.58;1.48;;;;;;;2.24;100.00;101711.03;5076701;28;20036;-82
2022/12/07 04:07:21;;;;;;;1.70;1.60;;;;;;;2.27;100.00;101711.13;5075731;28;20032;-83
2022/12/07 04:09:47;;;;;;;1.67;1.58;;;;;;;2.29;100.00;101707.78;5076383;28;20020;-83
2022/12/07 04:12:12;;;;;;;1.70;1.60;;;;;;;2.32;100.00;101714.69;5075761;28;20027;-82
2022/12/07 04:14:38;;;;;;;1.90;1.80;;;;;;;2.35;100.00;101708.81;5076492;28;20438;-82
2022/12/07 04:17:03;;;;;;;1.77;1.67;;;;;;;2.37;100.00;101714.84;5075972;28;20025;-82
2022/12/07 04:19:31;;;;;;;1.80;1.70;;;;;;;2.38;100.00;101716.59;5075550;28;20029;-82
2022/12/07 04:22:16;;;;;;;2.20;1.65;;;;;;;2.37;100.00;101708.03;5069081;28;20135;-82
2022/12/07 04:24:41;;;;;;;1.90;1.77;;;;;;;2.40;100.00;101708.16;5075869;28;20056;-82
2022/12/07 04:27:06;;;;;;;1.63;1.52;;;;;;;2.40;100.00;101709.81;5074705;28;20464;-82
2022/12/07 04:29:32;;;;;;;1.73;1.52;;;;;;;2.40;100.00;101710.72;5083986;22;20048;-82
2022/12/07 04:31:57;;;;;;;1.65;1.55;;;;;;;2.43;100.00;101709.94;5075934;28;20020;-82
2022/12/07 04:34:22;;;;;;;2.67;1.50;;;;;;;2.46;100.00;101717.72;5074932;28;20017;-82
2022/12/07 04:36:48;;;;;;;1.52;1.40;;;;;;;2.48;100.00;101710.94;5075535;28;20500;-82
2022/12/07 04:39:23;;;;;;;2.20;1.48;;;;;;;2.49;100.00;101699.88;5075764;28;20020;-82
2022/12/07 04:41:49;;;;;;;1.42;1.38;;;;;;;2.51;100.00;101703.34;5075107;28;20024;-82
2022/12/07 04:44:15;;;;;;;1.35;1.35;;;;;;;2.52;100.00;101702.53;5081960;28;20120;-82
2022/12/07 04:46:41;;;;;;;1.50;1.40;;;;;;;2.53;100.00;101699.16;5082005;28;20537;-82
2022/12/07 04:49:06;;;;;;;1.40;1.30;;;;;;;2.55;100.00;101700.06;5074684;28;20032;-82
2022/12/07 04:51:32;;;;;;;1.40;1.30;;;;;;;2.56;100.00;101703.50;5075713;28;20028;-82
2022/12/07 04:53:57;;;;;;;1.50;1.40;;;;;;;2.54;100.00;101703.47;5075502;28;20021;-82
2022/12/07 04:56:23;;;;;;;1.05;1.05;;;;;;;2.54;100.00;101703.47;5074585;28;20461;-82
2022/12/07 04:58:49;;;;;;;1.60;1.50;;;;;;;2.51;100.00;101700.78;5075655;28;20031;-82
2022/12/07 05:01:16;;;;;;;1.45;1.35;;;;;;;2.51;100.00;101695.66;5075131;28;20074;-82
2022/12/07 05:03:42;;;;;;;1.75;1.55;;;;;;;2.50;100.00;101693.91;5074537;28;20039;-82
2022/12/07 05:06:09;;;;;;;2.83;1.55;;;;;;;2.47;100.00;101696.41;5075336;28;20020;-82
2022/12/07 05:08:35;;;;;;;2.05;1.80;;;;;;;2.46;100.00;101686.97;5074659;28;20020;-83
2022/12/07 05:11:02;;;;;;;1.77;1.67;;;;;;;2.45;100.00;101693.78;5075437;28;20033;-82
2022/12/07 05:13:28;;;;;;;1.80;1.70;;;;;;;2.41;100.00;101686.84;5075634;28;20029;-82
2022/12/07 05:15:53;;;;;;;2.05;1.60;;;;;;;2.41;100.00;101685.94;5074493;28;20492;-83
2022/12/07 05:18:18;;;;;;;2.13;1.90;;;;;;;2.38;100.00;101689.28;5074864;28;20051;-82
2022/12/07 05:20:44;;;;;;;2.50;1.85;;;;;;;2.37;100.00;101690.09;5075115;28;20123;-82
2022/12/07 05:23:10;;;;;;;2.10;1.90;;;;;;;2.33;100.00;101685.69;5074221;28;20025;-82
2022/12/07 05:25:36;;;;;;;2.35;1.85;;;;;;;2.28;100.00;101689.81;5074812;28;20025;-82
2022/12/07 05:28:01;;;;;;;1.90;1.80;;;;;;;2.25;100.00;101689.72;5074922;28;20123;-83
2022/12/07 05:30:26;;;;;;;2.70;2.00;;;;;;;2.22;100.00;101689.59;5091596;28;20028;-82
2022/12/07 05:32:52;;;;;;;1.92;1.80;;;;;;;2.21;100.00;101690.41;5095045;28;20038;-82
2022/12/07 05:35:18;;;;;;;2.33;2.05;;;;;;;2.20;100.00;101689.56;5094649;28;20024;-83
2022/12/07 05:37:44;;;;;;;1.90;1.80;;;;;;;2.19;100.00;101695.50;5094286;28;20012;-82
2022/12/07 05:40:10;;;;;;;2.20;2.00;;;;;;;2.14;100.00;101703.03;5094817;28;20027;-83
2022/12/07 05:42:35;;;;;;;2.22;2.03;;;;;;;2.11;100.00;101699.50;5094840;28;20418;-82
2022/12/07 05:45:00;;;;;;;2.08;1.88;;;;;;;2.09;100.00;101685.78;5093870;28;20031;-82
2022/12/07 05:47:26;;;;;;;2.10;1.90;;;;;;;2.06;100.00;101683.09;5074655;28;20146;-82
2022/12/07 05:49:51;;;;;;;2.10;1.90;;;;;;;2.02;100.00;101678.72;5074358;28;20066;-83
2022/12/07 05:52:16;;;;;;;2.00;1.90;;;;;;;1.99;100.00;101682.91;5073606;28;20024;-82
2022/12/07 05:54:42;;;;;;;2.15;1.95;;;;;;;1.96;100.00;101679.38;5074162;28;20027;-83
2022/12/07 05:57:07;;;;;;;3.03;2.10;;;;;;;1.95;100.00;101675.09;5073982;28;20040;-82
2022/12/07 05:59:32;;;;;;;2.53;2.10;;;;;;;1.92;100.00;101680.09;5073522;28;20020;-82
2022/12/07 06:02:07;;;;;;;2.80;2.15;;;;;;;1.90;100.00;101679.16;5074482;28;20029;-82
2022/12/07 06:04:34;;;;;;;2.85;2.30;;;;;;;1.87;100.00;101681.59;5074137;28;20028;-82
2022/12/07 06:07:00;;;;;;;3.58;2.40;;;;;;;1.83;100.00;101678.97;5073425;28;20025;-82
2022/12/07 06:09:27;;;;;;;2.63;2.30;;;;;;;1.79;100.00;101677.09;5074056;28;20016;-83
2022/12/07 06:14:38;;;;;;;2.90;2.60;;;;;;;1.74;100.00;101685.44;5074393;28;20036;-82
2022/12/07 06:17:03;;;;;;;3.22;2.47;;;;;;;1.69;100.00;101678.47;5073610;28;20020;-82
2022/12/07 06:19:28;;;;;;;2.85;2.35;;;;;;;1.64;100.00;101685.13;5073167;28;20161;-83
2022/12/07 06:21:54;;;;;;;3.03;2.40;;;;;;;1.62;100.00;101684.19;5086994;28;20043;-82
2022/12/07 06:24:20;;;;;;;2.88;2.20;;;;;;;1.58;100.00;101682.34;5093734;28;20102;-83
2022/12/07 06:26:45;;;;;;;2.47;2.10;;;;;;;1.55;100.00;101687.38;5093378;28;20417;-82
2022/12/07 06:29:12;;;;;;;4.07;2.47;;;;;;;1.49;100.00;101685.47;5092968;28;20142;-83
2022/12/07 06:31:38;;;;;;;2.95;2.10;;;;;;;1.46;100.00;101687.06;5094104;28;20059;-82
2022/12/07 06:34:09;;;;;;;2.88;2.40;;;;;;;1.44;100.00;101696.34;5093398;22;20102;-82
2022/12/07 06:36:35;;;;;;;3.47;2.30;;;;;;;1.44;100.00;101688.69;5073299;28;20388;-82
2022/12/07 06:39:00;;;;;;;2.55;2.10;;;;;;;1.46;100.00;101697.28;5073204;28;20025;-82
2022/12/07 06:41:26;;;;;;;2.90;2.20;;;;;;;1.47;100.00;101693.88;5072501;28;20465;-82
2022/12/07 06:43:51;;;;;;;2.38;2.10;;;;;;;1.48;100.00;101688.84;5073491;28;20032;-82
2022/12/07 06:46:17;;;;;;;2.45;2.10;;;;;;;1.51;100.00;101685.50;5073298;28;20099;-82
2022/12/07 06:48:42;;;;;;;2.15;2.00;;;;;;;1.54;100.00;101686.50;5072707;28;20450;-82
2022/12/07 06:51:08;;;;;;;2.42;2.10;;;;;;;1.55;100.00;101682.25;5073222;28;20024;-82
2022/12/07 06:53:34;;;;;;;2.33;2.13;;;;;;;1.59;100.00;101681.53;5073423;28;20111;-83
2022/12/07 06:56:00;;;;;;;3.13;2.25;;;;;;;1.61;100.00;101686.72;5072865;28;20104;-82
2022/12/07 06:58:25;;;;;;;2.97;2.28;;;;;;;1.62;100.00;101683.34;5073159;28;20085;-83
2022/12/07 07:00:51;;;;;;;2.75;2.20;;;;;;;1.63;100.00;101688.50;5073127;28;20024;-82
2022/12/07 07:03:16;;;;;;;2.30;2.10;;;;;;;1.64;100.00;101684.25;5072510;28;20030;-82
2022/12/07 07:05:43;;;;;;;2.30;2.10;;;;;;;1.66;100.00;101693.75;5073290;28;20479;-82
2022/12/07 07:08:08;;;;;;;2.40;2.20;;;;;;;1.70;100.00;101697.28;5072300;28;20044;-82
2022/12/07 07:10:35;;;;;;;2.92;2.15;;;;;;;1.71;100.00;101693.91;5074133;28;20048;-83
2022/12/07 07:13:00;;;;;;;2.58;2.20;;;;;;;1.68;100.00;101693.78;5073056;28;20032;-82
2022/12/07 07:15:25;;;;;;;2.65;2.30;;;;;;;1.71;100.00;101699.00;5072189;28;20028;-82
2022/12/07 07:17:51;;;;;;;4.07;2.35;;;;;;;1.68;100.00;101694.66;5072181;28;20488;-83
2022/12/07 07:20:16;;;;;;;2.50;2.30;;;;;;;1.69;100.00;101696.38;5072966;28;20039;-83
2022/12/07 07:22:41;;;;;;;2.25;2.05;;;;;;;1.70;100.00;101707.50;5071997;28;20031;-82
2022/12/07 07:25:07;;;;;;;2.58;2.00;;;;;;;1.69;100.00;101698.94;5072619;28;20059;-82
2022/12/07 07:27:32;;;;;;;2.30;2.10;;;;;;;1.69;100.00;101704.06;5073185;28;20027;-82
2022/12/07 07:29:57;;;;;;;2.35;2.13;;;;;;;1.69;100.00;101706.63;5071747;28;20051;-82
2022/12/07 07:32:23;;;;;;;2.30;2.10;;;;;;;1.69;100.00;101698.94;5072477;28;20025;-82
2022/12/07 07:34:48;;;;;;;2.30;2.10;;;;;;;1.71;100.00;101699.00;5072851;28;20049;-82
2022/12/07 07:37:14;;;;;;;3.28;1.92;;;;;;;1.68;100.00;101697.22;5071745;28;20542;-82
2022/12/07 07:39:40;;;;;;;1.90;1.80;;;;;;;1.69;100.00;101701.50;5072647;28;20059;-86
2022/12/07 07:42:05;;;;;;;1.80;1.70;;;;;;;1.72;100.00;101699.88;5088962;28;20053;-85
2022/12/07 07:44:30;;;;;;;2.40;1.80;;;;;;;1.74;100.00;101695.69;5091973;28;20495;-86
2022/12/07 07:46:56;;;;;;;2.33;1.75;;;;;;;1.75;100.00;101700.00;5092386;28;20065;-85
2022/12/07 07:49:21;;;;;;;2.10;1.90;;;;;;;1.76;100.00;101704.28;5091930;28;20363;-86
2022/12/07 07:51:46;;;;;;;1.80;1.70;;;;;;;1.78;100.00;101707.78;5092421;28;20020;-86
2022/12/07 07:54:12;;;;;;;1.80;1.70;;;;;;;1.81;100.00;101706.19;5092322;28;20035;-85
2022/12/07 07:56:37;;;;;;;1.85;1.75;;;;;;;1.85;100.00;101704.59;5090611;22;20056;-83
2022/12/07 07:59:02;;;;;;;2.20;1.95;;;;;;;1.87;100.00;101697.84;5071358;28;20115;-82
2022/12/07 08:01:28;;;;;;;2.33;2.05;;;;;;;1.89;100.00;101697.91;5072291;28;20055;-83
2022/12/07 08:03:53;;;;;;;2.45;2.25;;;;;;;1.90;100.00;101708.22;5071879;28;20059;-82
2022/12/07 08:06:31;;;;;;;1.90;1.80;;;;;;;1.89;100.00;101703.91;5071165;28;20111;-84
2022/12/07 08:08:57;;;;;;;2.45;1.90;;;;;;;1.90;100.00;101703.09;5072394;28;20025;-83
2022/12/07 08:11:41;;;;;;;2.10;2.00;;;;;;;1.92;100.00;101713.38;5082431;28;20062;-82
2022/12/07 08:14:07;;;;;;;1.98;1.88;;;;;;;1.90;100.00;101709.88;5092389;28;20016;-82
2022/12/07 08:16:47;;;;;;;2.95;2.15;;;;;;;1.91;100.00;101717.63;5091656;28;20024;-83
2022/12/07 08:19:13;;;;;;;2.08;1.88;;;;;;;1.88;100.00;101712.41;5091538;28;20479;-83
2022/12/07 08:21:38;;;;;;;2.40;2.20;;;;;;;1.87;100.00;101715.78;5092235;28;20119;-83
2022/12/07 08:24:04;;;;;;;2.20;2.00;;;;;;;1.87;100.00;101726.00;5092073;28;20032;-83
2022/12/07 08:26:53;;;;;;;2.03;1.92;;;;;;;1.88;100.00;101726.88;5091806;28;20107;-84
2022/12/07 08:29:27;;;;;;;2.90;2.25;;;;;;;1.87;100.00;101715.78;5093188;28;20103;-83
2022/12/07 08:31:53;;;;;;;2.38;2.00;;;;;;;1.91;100.00;101719.31;5096372;28;20020;-83
2022/12/07 08:34:18;;;;;;;2.10;2.00;;;;;;;1.97;100.00;101727.22;5095004;28;20357;-84
2022/12/07 08:36:52;;;;;;;2.05;1.85;;;;;;;2.03;100.00;101724.84;5096219;28;20074;-83
2022/12/07 08:39:18;;;;;;;1.73;1.63;;;;;;;2.09;100.00;101726.75;5081543;28;20047;-81
2022/12/07 08:41:43;;;;;;;2.63;1.80;;;;;;;2.14;100.00;101723.53;5074982;28;20056;-85
2022/12/07 08:44:21;;;;;;;1.77;1.67;;;;;;;2.23;100.00;101730.66;5075445;28;20557;-85
2022/12/07 08:46:53;;;;;;;1.67;1.55;;;;;;;2.31;100.00;101725.75;5074965;28;20094;-84
2022/12/07 08:49:34;;;;;;;1.80;1.67;;;;;;;2.36;100.00;101720.81;5075718;28;20105;-85
2022/12/07 08:51:59;;;;;;;3.70;2.30;;;;;;;2.39;100.00;101726.00;5075910;28;20044;-85
2022/12/07 08:54:25;;;;;;;3.83;2.58;;;;;;;2.39;100.00;101714.09;5074540;28;20373;-84
2022/12/07 08:56:52;;;;;;;3.95;2.45;;;;;;;2.42;100.00;101718.44;5075348;28;20052;-84
2022/12/07 08:59:29;;;;;;;3.28;2.38;;;;;;;2.42;100.00;101709.03;5065481;28;20037;-85
2022/12/07 09:01:55;;;;;;;3.40;2.53;;;;;;;2.46;100.00;101712.59;5075098;28;20107;-83
2022/12/07 09:04:58;;;;;;;4.55;2.60;;;;;;;2.45;100.00;101705.72;5075123;28;20143;-84
2022/12/07 09:11:27;;;;;;;3.00;2.30;;;;;;;2.52;100.00;101717.06;4951448;29;20062;-83
2022/12/07 09:14:36;;;;;;;2.95;2.20;;;;;;;2.55;100.00;101710.31;4941759;29;20417;-82
2022/12/07 09:17:12;;;;;;;2.25;1.90;;;;;;;2.57;100.00;101720.63;4932944;29;20032;-83
2022/12/07 09:19:38;;;;;;;2.77;1.90;;;;;;;2.60;100.00;101710.47;4934671;29;20516;-82
2022/12/07 09:22:08;;;;;;;2.20;1.87;;;;;;;2.63;100.00;101715.69;4975375;28;20037;-82
2022/12/07 09:24:34;;;;;;;1.80;1.70;;;;;;;2.67;100.00;101714.94;5013054;28;20486;-82
2022/12/07 09:26:59;;;;;;;1.70;1.60;;;;;;;2.67;100.00;101716.66;5012283;28;20041;-82
2022/12/07 09:29:27;;;;;;;1.70;1.60;;;;;;;2.69;100.00;101722.72;5061698;28;20040;-82
2022/12/07 09:31:53;;;;;;;1.40;1.30;;;;;;;2.68;100.00;101715.84;5073274;28;20388;-82
2022/12/07 09:34:34;;;;;;;1.38;1.27;;;;;;;2.68;100.00;101720.97;5072823;28;20032;-82
2022/12/07 09:37:01;;;;;;;1.90;1.25;;;;;;;2.67;100.00;101716.66;5072389;28;20480;-82
2022/12/07 09:39:27;;;;;;;1.52;1.42;;;;;;;2.65;100.00;101715.75;5073094;28;20032;-82
2022/12/07 09:41:52;;;;;;;1.17;1.17;;;;;;;2.67;100.00;101722.66;5086211;28;20032;-82
2022/12/07 09:44:34;;;;;;;1.27;1.25;;;;;;;2.68;100.00;101720.97;5093856;28;20480;-82
2022/12/07 09:47:00;;;;;;;1.15;1.05;;;;;;;2.67;100.00;101717.53;5094783;28;20031;-82
2022/12/07 09:49:29;;;;;;;1.30;1.20;;;;;;;2.73;100.00;101717.72;5094632;28;20379;-82
2022/12/07 09:52:01;;;;;;;1.10;1.10;;;;;;;2.78;100.00;101718.72;5094115;28;20054;-82
2022/12/07 09:54:29;;;;;;;1.20;1.10;;;;;;;2.84;100.00;101718.03;5094662;28;20024;-81
2022/12/07 09:56:54;;;;;;;0.90;0.90;;;;;;;2.90;100.00;101722.50;5093703;28;20087;-85
2022/12/07 09:59:20;;;;;;;1.20;1.10;;;;;;;2.91;100.00;101714.88;5094135;28;20059;-85
2022/12/07 10:01:49;;;;;;;1.42;1.10;;;;;;;2.94;100.00;101720.06;5094393;28;20024;-85
2022/12/07 10:04:24;;;;;;;1.55;1.02;;;;;;;2.98;100.00;101717.59;5093122;28;20024;-85
2022/12/07 10:06:51;;;;;;;0.80;0.80;;;;;;;3.08;100.00;101711.91;5094626;28;20020;-85
2022/12/07 10:09:18;;;;;;;0.73;0.70;;;;;;;3.22;100.00;101702.94;5090890;28;20464;-84
2022/12/07 10:12:08;;;;;;;1.00;1.00;;;;;;;3.42;100.00;101702.63;5073261;28;20020;-84
2022/12/07 10:14:36;;;;;;;1.35;1.00;;;;;;;3.57;100.00;101684.22;5079965;28;20020;-83
2022/12/07 10:17:02;;;;;;;1.17;1.08;;;;;;;3.71;100.00;101692.31;5080629;28;20024;-83
2022/12/07 10:19:30;;;;;;;1.75;1.10;;;;;;;3.86;100.00;101689.25;5074394;28;20028;-83
2022/12/07 10:22:00;;;;;;;1.27;1.20;;;;;;;4.01;100.00;101691.34;5074022;28;20043;-83
2022/12/07 10:24:25;;;;;;;1.83;1.50;;;;;;;4.07;100.00;101686.34;5073494;28;20477;-84
2022/12/07 10:26:53;;;;;;;1.55;1.45;;;;;;;4.09;100.00;101678.72;5073081;28;20024;-84
2022/12/07 10:29:18;;;;;;;;;;;;;;;4.09;100.00;101682.13;5074263;28;20024;-84
2022/12/07 10:31:45;;;;;;;1.60;1.50;;;;;;;4.08;100.00;101682.09;5073915;28;19916;-84
2022/12/07 10:34:33;;;;;;;3.47;1.90;;;;;;;4.07;100.00;101686.34;5072805;28;20048;-84
2022/12/07 10:37:16;;;;;;;2.30;2.10;;;;;;;4.08;100.00;101676.97;5073646;28;20021;-84
2022/12/07 10:39:53;;;;;;;3.42;2.47;;;;;;;4.18;100.00;101677.22;5073250;28;20035;-84
2022/12/07 10:42:18;;;;;;;;;;;;;;;4.30;100.00;101668.94;5073952;28;20020;-84
2022/12/07 10:44:44;;;;;;;3.17;2.50;;;;;;;4.42;100.00;101673.50;5074324;28;20269;-83
2022/12/07 10:47:34;;;;;;;2.95;2.28;;;;;;;4.54;100.00;101669.47;5072877;28;20020;-82
2022/12/07 10:50:11;;;;;;;2.95;2.13;;;;;;;4.64;100.00;101669.72;5073275;28;21576;-82
2022/12/07 10:52:49;;;;;;;3.22;2.38;;;;;;;4.76;100.00;101670.84;5073130;28;20051;-83
2022/12/07 10:55:20;;;;;;;2.75;2.15;;;;;;;4.86;100.00;101670.19;5072221;28;20032;-83
2022/12/07 10:57:51;;;;;;;2.92;2.20;;;;;;;4.90;100.00;101658.28;5073028;28;20041;-84
2022/12/07 11:00:24;;;;;;;2.58;2.00;;;;;;;4.93;100.00;101661.78;5071939;28;20025;-82
2022/12/07 11:03:02;;;;;;;2.30;2.10;;;;;;;4.97;100.00;101654.13;5073743;28;20082;-82
2022/12/07 11:05:42;;;;;;;3.90;2.28;;;;;;;5.03;100.00;101654.25;5073032;28;20036;-82
2022/12/07 11:08:36;;;;;;;4.18;2.35;;;;;;;5.06;100.00;101649.16;5072143;28;20024;-82
2022/12/07 11:11:22;;;;;;;3.85;2.22;;;;;;;5.07;100.00;101643.19;5079619;28;20057;-83
2022/12/07 11:14:08;;;;;;;3.53;2.28;;;;;;;5.04;100.00;101645.69;5093729;28;20357;-82
2022/12/07 11:16:59;;;;;;;2.10;1.90;;;;;;;5.06;100.00;101649.16;5092861;28;20047;-82
2022/12/07 11:19:40;;;;;;;3.83;2.13;;;;;;;5.08;100.00;101644.94;5080868;28;20050;-82
2022/12/07 11:22:15;;;;;;;3.65;2.20;;;;;;;5.09;99.65;101644.94;5072023;28;20032;-82
2022/12/07 11:25:02;;;;;;;2.78;2.20;;;;;;;5.09;99.88;101634.66;5073131;28;20077;-82
2022/12/07 11:27:53;;;;;;;3.35;2.10;;;;;;;5.09;100.00;101639.81;5073033;28;20058;-82
2022/12/07 11:30:36;;;;;;;2.15;1.95;;;;;;;5.08;100.00;101629.47;5071654;28;20039;-81
2022/12/07 11:33:26;;;;;;;2.30;2.10;;;;;;;5.08;99.79;101632.91;5075749;28;20073;-81
2022/12/07 11:36:03;;;;;;;2.50;2.00;;;;;;;5.10;99.84;101628.66;5092543;28;20089;-81
2022/12/07 11:38:50;;;;;;;2.58;1.95;;;;;;;5.10;100.00;101627.81;5092014;28;20107;-81
2022/12/07 11:41:23;;;;;;;2.67;2.00;;;;;;;5.10;98.67;101625.25;5093077;28;20110;-81
2022/12/07 11:44:04;;;;;;;1.90;1.80;;;;;;;5.08;99.34;101614.91;5091863;28;20025;-81
2022/12/07 11:46:54;;;;;;;2.00;1.80;;;;;;;5.08;99.68;101616.63;5072629;28;20457;-81
2022/12/07 11:49:38;;;;;;;3.10;1.92;;;;;;;5.05;99.12;101625.16;5064390;28;20052;-81